createdAt,value
2019-05-05T00:01:48.076Z,65.56
2019-05-05T00:04:28.786Z,66.24
2019-05-05T00:06:59.998Z,66.34
2019-05-05T00:09:31.341Z,65.74
2019-05-05T00:12:18.989Z,65.99
2019-05-05T00:15:08.128Z,65.86
2019-05-05T00:17:39.695Z,65.59
2019-05-05T00:20:11.572Z,65.87
2019-05-05T00:22:45.414Z,65.56
2019-05-05T00:25:16.264Z,65.75
2019-05-05T00:27:47.327Z,65.46
2019-05-05T00:30:18.475Z,65.55
2019-05-05T00:32:49.528Z,65.75
2019-05-05T00:35:21.000Z,65.66
2019-05-05T00:37:52.024Z,65.22
2019-05-05T00:40:24.835Z,65.63
2019-05-05T00:42:56.028Z,65.57
2019-05-05T00:45:29.136Z,65.47
2019-05-05T00:48:06.843Z,65.87
2019-05-05T00:50:37.977Z,65.72
2019-05-05T00:53:08.955Z,65.16
2019-05-05T00:55:39.955Z,65.20
2019-05-05T00:58:10.938Z,65.17
2019-05-05T01:00:54.796Z,65.05
2019-05-05T01:03:27.294Z,65.29
2019-05-05T01:06:14.984Z,65.59
2019-05-05T01:08:45.772Z,64.93
2019-05-05T01:11:17.723Z,65.02
2019-05-05T01:13:48.778Z,64.92
2019-05-05T01:16:20.013Z,65.27
2019-05-05T01:18:51.000Z,65.29
2019-05-05T01:21:24.290Z,65.26
2019-05-05T01:23:54.984Z,65.29
2019-05-05T01:26:26.067Z,65.17
2019-05-05T01:28:57.147Z,64.79
2019-05-05T01:31:28.262Z,65.24
2019-05-05T01:34:15.210Z,65.21
2019-05-05T01:36:48.592Z,65.47
2019-05-05T01:39:28.198Z,65.39
2019-05-05T01:42:01.891Z,65.59
2019-05-05T01:44:35.103Z,66.15
2019-05-05T01:47:06.030Z,65.98
2019-05-05T01:49:37.110Z,66.08
2019-05-05T01:52:08.278Z,65.62
2019-05-05T01:54:39.272Z,65.91
2019-05-05T01:57:10.602Z,65.93
2019-05-05T01:59:42.292Z,65.61
2019-05-05T02:02:14.596Z,65.57
2019-05-05T02:04:45.949Z,65.61
2019-05-05T02:07:17.014Z,65.74
2019-05-05T02:09:48.079Z,66.25
2019-05-05T02:12:19.173Z,66.28
2019-05-05T02:14:50.365Z,65.82
2019-05-05T02:17:21.500Z,65.47
2019-05-05T02:19:54.802Z,65.58
2019-05-05T02:22:25.604Z,65.65
2019-05-05T02:24:56.736Z,65.71
2019-05-05T02:27:27.879Z,65.57
2019-05-05T02:30:16.181Z,66.01
2019-05-05T02:32:50.014Z,65.80
2019-05-05T02:35:21.160Z,66.07
2019-05-05T02:37:52.156Z,65.36
2019-05-05T02:40:24.540Z,64.94
2019-05-05T02:42:56.025Z,65.85
2019-05-05T02:46:30.424Z,65.57
2019-05-05T02:49:05.294Z,65.09
2019-05-05T02:51:37.017Z,66.05
2019-05-05T02:54:08.170Z,65.62
2019-05-05T02:56:46.493Z,65.70
2019-05-05T02:59:25.680Z,65.53
2019-05-05T03:02:04.154Z,65.29
2019-05-05T03:04:36.267Z,65.62
2019-05-05T03:07:09.111Z,65.66
2019-05-05T03:09:43.975Z,65.61
2019-05-05T03:12:17.404Z,65.43
2019-05-05T03:14:50.477Z,65.35
2019-05-05T03:17:23.461Z,64.90
2019-05-05T03:19:55.379Z,65.51
2019-05-05T03:22:27.898Z,65.08
2019-05-05T03:24:59.274Z,64.95
2019-05-05T03:27:30.465Z,65.37
2019-05-05T03:30:05.014Z,65.36
2019-05-05T03:32:36.300Z,65.48
2019-05-05T03:35:07.800Z,65.12
2019-05-05T03:37:39.304Z,65.56
2019-05-05T03:40:18.963Z,65.32
2019-05-05T03:43:00.995Z,65.14
2019-05-05T03:45:53.971Z,64.78
2019-05-05T03:48:25.569Z,65.06
2019-05-05T03:50:57.764Z,64.85
2019-05-05T03:53:29.355Z,64.93
2019-05-05T03:56:00.732Z,64.78
2019-05-05T03:58:34.348Z,64.76
2019-05-05T04:01:34.598Z,64.56
2019-05-05T04:04:24.496Z,64.53
2019-05-05T04:06:56.508Z,64.73
2019-05-05T04:09:27.575Z,64.78
2019-05-05T04:11:58.680Z,64.76
2019-05-05T04:14:29.757Z,64.27
2019-05-05T04:17:24.476Z,63.96
2019-05-05T04:19:56.819Z,63.97
2019-05-05T04:22:27.907Z,64.09
2019-05-05T04:24:58.901Z,64.35
2019-05-05T04:27:30.234Z,64.01
2019-05-05T04:30:03.842Z,64.17
2019-05-05T04:32:36.185Z,64.17
2019-05-05T04:35:07.571Z,64.34
2019-05-05T04:37:38.710Z,64.86
2019-05-05T04:40:10.015Z,64.97
2019-05-05T04:42:41.028Z,65.12
2019-05-05T04:45:14.841Z,65.58
2019-05-05T04:47:49.142Z,64.93
2019-05-05T04:50:34.642Z,65.21
2019-05-05T04:53:09.753Z,65.12
2019-05-05T04:55:40.747Z,64.81
2019-05-05T04:58:13.671Z,65.01
2019-05-05T05:00:45.100Z,65.02
2019-05-05T05:03:35.090Z,64.92
2019-05-05T05:06:14.650Z,64.80
2019-05-05T05:08:45.608Z,64.94
2019-05-05T05:11:16.595Z,64.86
2019-05-05T05:13:47.656Z,64.81
2019-05-05T05:16:18.660Z,64.53
2019-05-05T05:18:49.660Z,64.55
2019-05-05T05:21:20.666Z,64.98
2019-05-05T05:23:53.449Z,64.87
2019-05-05T05:26:24.376Z,64.62
2019-05-05T05:28:55.383Z,64.56
2019-05-05T05:31:26.390Z,64.41
2019-05-05T05:33:57.473Z,64.77
2019-05-05T05:36:28.462Z,65.29
2019-05-05T05:39:05.759Z,65.62
2019-05-05T05:41:43.673Z,65.86
2019-05-05T05:44:38.396Z,65.59
2019-05-05T05:47:17.241Z,65.52
2019-05-05T05:49:54.429Z,65.17
2019-05-05T05:52:25.390Z,65.04
2019-05-05T05:54:56.403Z,65.52
2019-05-05T05:57:27.591Z,65.72
2019-05-05T05:59:58.550Z,65.49
2019-05-05T06:02:29.555Z,65.23
2019-05-05T06:05:00.545Z,64.70
2019-05-05T06:07:33.500Z,64.36
2019-05-05T06:10:04.949Z,64.34
2019-05-05T06:12:36.519Z,64.05
2019-05-05T06:15:07.753Z,64.54
2019-05-05T06:17:39.032Z,64.30
2019-05-05T06:20:10.315Z,63.85
2019-05-05T06:22:41.323Z,63.73
2019-05-05T06:25:16.012Z,65.01
2019-05-05T06:27:45.218Z,64.93
2019-05-05T06:30:16.754Z,64.47
2019-05-05T06:32:47.908Z,63.69
2019-05-05T06:35:19.351Z,63.82
2019-05-05T06:37:54.538Z,64.45
2019-05-05T06:40:41.214Z,64.79
2019-05-05T06:43:29.862Z,63.74
2019-05-05T06:46:04.073Z,63.43
2019-05-05T06:48:35.286Z,63.51
2019-05-05T06:51:06.757Z,63.37
2019-05-05T06:53:37.973Z,62.90
2019-05-05T06:56:09.099Z,62.28
2019-05-05T06:58:40.136Z,61.86
2019-05-05T07:01:11.231Z,62.51
2019-05-05T07:03:43.890Z,62.57
2019-05-05T07:06:15.212Z,61.84
2019-05-05T07:08:46.309Z,61.28
2019-05-05T07:11:17.688Z,61.63
2019-05-05T07:13:48.791Z,61.93
2019-05-05T07:16:19.845Z,61.80
2019-05-05T07:18:50.866Z,61.89
2019-05-05T07:21:23.929Z,62.75
2019-05-05T07:23:54.994Z,62.14
2019-05-05T07:26:26.082Z,61.66
2019-05-05T07:28:57.558Z,61.68
2019-05-05T07:31:28.626Z,61.38
2019-05-05T07:33:59.835Z,60.90
2019-05-05T07:36:38.899Z,60.75
2019-05-05T07:39:11.335Z,61.09
2019-05-05T07:41:44.552Z,62.39
2019-05-05T07:44:25.921Z,61.83
2019-05-05T07:46:48.108Z,61.70
2019-05-05T07:49:19.432Z,61.49
2019-05-05T07:51:50.440Z,61.12
2019-05-05T07:54:23.530Z,61.36
2019-05-05T07:56:54.658Z,61.45
2019-05-05T07:59:25.995Z,61.95
2019-05-05T08:01:57.760Z,61.08
2019-05-05T08:04:28.857Z,61.46
2019-05-05T08:06:59.912Z,60.65
2019-05-05T08:09:30.935Z,60.64
2019-05-05T08:12:04.209Z,60.19
2019-05-05T08:14:35.064Z,59.94
2019-05-05T08:17:29.543Z,60.06
2019-05-05T08:20:07.886Z,59.81
2019-05-05T08:22:39.130Z,60.27
2019-05-05T08:25:36.345Z,60.39
2019-05-05T08:28:17.449Z,59.76
2019-05-05T08:31:10.271Z,59.00
2019-05-05T08:33:41.352Z,59.17
2019-05-05T08:36:14.545Z,58.65
2019-05-05T08:38:45.290Z,58.10
2019-05-05T08:41:16.279Z,58.13
2019-05-05T08:43:47.373Z,58.58
2019-05-05T08:46:18.369Z,58.25
2019-05-05T08:48:50.477Z,58.16
2019-05-05T08:51:21.526Z,57.98
2019-05-05T08:53:54.424Z,58.68
2019-05-05T08:56:25.690Z,58.32
2019-05-05T08:58:57.935Z,58.68
2019-05-05T09:01:28.923Z,56.83
2019-05-05T09:04:00.058Z,55.30
2019-05-05T09:06:31.111Z,56.31
2019-05-05T09:09:03.858Z,56.27
2019-05-05T09:11:36.759Z,55.47
2019-05-05T09:14:08.023Z,55.17
2019-05-05T09:16:39.084Z,54.19
2019-05-05T09:19:14.671Z,54.63
2019-05-05T09:21:46.682Z,52.94
2019-05-05T09:24:36.599Z,54.11
2019-05-05T09:27:34.532Z,54.66
2019-05-05T09:30:06.522Z,53.92
2019-05-05T09:32:37.654Z,54.31
2019-05-05T09:35:09.211Z,54.62
2019-05-05T09:37:40.775Z,55.25
2019-05-05T09:40:13.906Z,55.02
2019-05-05T09:42:45.007Z,55.80
2019-05-05T09:45:17.308Z,55.66
2019-05-05T09:47:48.824Z,55.38
2019-05-05T09:50:20.204Z,55.39
2019-05-05T09:52:51.206Z,55.03
2019-05-05T09:55:24.078Z,54.38
2019-05-05T09:57:56.247Z,55.04
2019-05-05T10:00:27.399Z,54.26
2019-05-05T10:02:58.614Z,53.70
2019-05-05T10:05:29.869Z,54.50
2019-05-05T10:08:01.040Z,54.58
2019-05-05T10:10:33.723Z,55.31
2019-05-05T10:13:06.008Z,55.45
2019-05-05T10:15:37.074Z,55.33
2019-05-05T10:18:08.092Z,55.64
2019-05-05T10:20:39.327Z,54.15
2019-05-05T10:23:10.478Z,52.90
2019-05-05T10:25:47.790Z,52.43
2019-05-05T10:28:19.046Z,52.08
2019-05-05T10:30:50.346Z,53.76
2019-05-05T10:33:21.469Z,52.90
2019-05-05T10:35:54.115Z,52.80
2019-05-05T10:38:25.311Z,52.54
2019-05-05T10:40:56.412Z,53.38
2019-05-05T10:43:27.641Z,53.37
2019-05-05T10:46:03.968Z,53.29
2019-05-05T10:48:35.024Z,53.92
2019-05-05T10:51:06.856Z,54.26
2019-05-05T10:53:38.001Z,55.02
2019-05-05T10:56:09.003Z,54.26
2019-05-05T10:58:41.131Z,54.31
2019-05-05T11:01:14.357Z,53.74
2019-05-05T11:03:45.365Z,54.42
2019-05-05T11:06:16.993Z,54.24
2019-05-05T11:08:48.433Z,53.71
2019-05-05T11:11:19.512Z,53.29
2019-05-05T11:13:50.612Z,53.13
2019-05-05T11:16:21.728Z,51.56
2019-05-05T11:18:54.025Z,52.91
2019-05-05T11:21:25.415Z,53.40
2019-05-05T11:23:56.476Z,52.36
2019-05-05T11:26:27.566Z,52.60
2019-05-05T11:28:58.624Z,51.21
2019-05-05T11:31:29.819Z,53.19
2019-05-05T11:34:09.841Z,53.78
2019-05-05T11:37:03.712Z,52.84
2019-05-05T11:39:34.881Z,52.88
2019-05-05T11:42:07.038Z,53.24
2019-05-05T11:44:38.365Z,52.49
2019-05-05T11:47:09.502Z,50.90
2019-05-05T11:49:40.638Z,51.97
2019-05-05T11:52:11.620Z,51.44
2019-05-05T11:54:43.873Z,50.92
2019-05-05T11:57:15.524Z,51.11
2019-05-05T11:59:46.555Z,50.35
2019-05-05T12:02:17.578Z,50.54
2019-05-05T12:04:48.752Z,51.60
2019-05-05T12:07:19.761Z,51.24
2019-05-05T12:09:56.931Z,52.01
2019-05-05T12:12:28.099Z,52.26
2019-05-05T12:14:59.215Z,49.63
2019-05-05T12:17:36.562Z,48.49
2019-05-05T12:20:09.426Z,47.69
2019-05-05T12:22:40.416Z,48.15
2019-05-05T12:25:31.145Z,47.32
2019-05-05T12:28:06.897Z,47.19
2019-05-05T12:30:38.045Z,47.51
2019-05-05T12:33:09.054Z,46.45
2019-05-05T12:35:40.161Z,47.10
2019-05-05T12:38:11.169Z,46.35
2019-05-05T12:40:44.171Z,46.49
2019-05-05T12:43:15.409Z,47.09
2019-05-05T12:45:48.824Z,46.69
2019-05-05T12:48:29.280Z,46.72
2019-05-05T12:51:00.934Z,46.70
2019-05-05T12:53:31.929Z,46.00
2019-05-05T12:56:04.062Z,45.62
2019-05-05T12:58:35.476Z,46.58
2019-05-05T13:01:19.728Z,46.30
2019-05-05T13:03:50.781Z,47.55
2019-05-05T13:06:23.847Z,46.90
2019-05-05T13:08:54.985Z,47.06
2019-05-05T13:11:26.431Z,43.53
2019-05-05T13:13:58.710Z,44.40
2019-05-05T13:16:29.940Z,47.04
2019-05-05T13:19:04.387Z,45.74
2019-05-05T13:22:09.919Z,45.42
2019-05-05T13:24:55.845Z,44.92
2019-05-05T13:27:30.264Z,44.41
2019-05-05T13:30:01.301Z,45.39
2019-05-05T13:32:33.653Z,43.95
2019-05-05T13:35:06.374Z,43.40
2019-05-05T13:37:37.498Z,42.26
2019-05-05T13:40:09.469Z,41.91
2019-05-05T13:42:40.704Z,42.69
2019-05-05T13:45:28.453Z,42.62
2019-05-05T13:47:59.456Z,43.00
2019-05-05T13:50:34.634Z,41.56
2019-05-05T13:53:05.857Z,41.12
2019-05-05T13:55:37.767Z,40.53
2019-05-05T13:58:09.093Z,42.06
2019-05-05T14:00:40.384Z,41.01
2019-05-05T14:03:11.400Z,42.40
2019-05-05T14:05:43.711Z,41.99
2019-05-05T14:08:15.176Z,42.73
2019-05-05T14:10:46.310Z,41.53
2019-05-05T14:13:17.328Z,41.18
2019-05-05T14:15:48.632Z,40.91
2019-05-05T14:18:19.655Z,39.72
2019-05-05T14:20:50.669Z,38.69
2019-05-05T14:23:23.897Z,39.02
2019-05-05T14:25:54.685Z,40.70
2019-05-05T14:28:25.778Z,41.18
2019-05-05T14:31:02.637Z,41.45
2019-05-05T14:33:54.100Z,42.46
2019-05-05T14:36:38.362Z,43.08
2019-05-05T14:39:10.982Z,40.72
2019-05-05T14:41:44.482Z,42.65
2019-05-05T14:44:15.534Z,42.03
2019-05-05T14:46:46.777Z,40.58
2019-05-05T14:49:17.769Z,41.35
2019-05-05T14:51:48.848Z,41.56
2019-05-05T14:54:19.892Z,41.25
2019-05-05T14:56:50.977Z,41.42
2019-05-05T14:59:23.520Z,40.35
2019-05-05T15:01:54.570Z,41.45
2019-05-05T15:04:27.455Z,41.10
2019-05-05T15:07:23.919Z,40.77
2019-05-05T15:10:14.486Z,40.83
2019-05-05T15:12:49.549Z,39.61
2019-05-05T15:15:20.738Z,40.59
2019-05-05T15:17:53.698Z,40.11
2019-05-05T15:20:24.629Z,41.05
2019-05-05T15:22:55.682Z,40.54
2019-05-05T15:25:26.990Z,40.01
2019-05-05T15:27:59.098Z,42.13
2019-05-05T15:30:30.119Z,42.61
2019-05-05T15:33:01.515Z,41.93
2019-05-05T15:35:33.971Z,43.36
2019-05-05T15:38:05.252Z,44.04
2019-05-05T15:40:36.317Z,43.04
2019-05-05T15:43:08.466Z,42.52
2019-05-05T15:45:39.595Z,42.32
2019-05-05T15:48:10.660Z,42.61
2019-05-05T15:50:43.839Z,43.19
2019-05-05T15:53:14.663Z,43.51
2019-05-05T15:55:45.936Z,43.31
2019-05-05T15:58:20.670Z,42.71
2019-05-05T16:00:50.353Z,42.53
2019-05-05T16:03:21.383Z,42.72
2019-05-05T16:05:54.227Z,43.40
2019-05-05T16:08:25.165Z,42.89
2019-05-05T16:10:56.243Z,42.42
2019-05-05T16:13:27.399Z,42.75
2019-05-05T16:16:19.360Z,41.47
2019-05-05T16:19:05.555Z,41.55
2019-05-05T16:21:40.339Z,41.67
2019-05-05T16:24:20.013Z,42.33
2019-05-05T16:26:51.134Z,42.30
2019-05-05T16:29:23.783Z,42.73
2019-05-05T16:31:55.025Z,41.74
2019-05-05T16:34:26.208Z,41.70
2019-05-05T16:36:57.337Z,42.55
2019-05-05T16:39:28.361Z,42.56
2019-05-05T16:41:59.434Z,42.73
2019-05-05T16:44:30.497Z,43.08
2019-05-05T16:47:01.587Z,43.54
2019-05-05T16:49:35.294Z,43.23
2019-05-05T16:52:11.076Z,41.90
2019-05-05T16:55:04.522Z,41.77
2019-05-05T16:57:36.904Z,42.22
2019-05-05T17:00:08.909Z,42.00
2019-05-05T17:02:40.025Z,41.61
2019-05-05T17:05:13.634Z,42.21
2019-05-05T17:07:44.246Z,42.42
2019-05-05T17:10:15.837Z,42.72
2019-05-05T17:12:47.037Z,41.77
2019-05-05T17:15:45.580Z,41.76
2019-05-05T17:18:54.180Z,41.86
2019-05-05T17:21:44.552Z,41.08
2019-05-05T17:24:15.752Z,42.04
2019-05-05T17:26:46.840Z,41.48
2019-05-05T17:29:17.930Z,41.44
2019-05-05T17:31:49.102Z,41.09
2019-05-05T17:34:20.129Z,41.14
2019-05-05T17:36:51.216Z,41.48
2019-05-05T17:39:23.875Z,41.90
2019-05-05T17:42:05.684Z,42.78
2019-05-05T17:44:55.624Z,43.55
2019-05-05T17:47:34.353Z,43.18
2019-05-05T17:50:11.724Z,42.70
2019-05-05T17:52:53.739Z,42.86
2019-05-05T17:55:29.061Z,42.37
2019-05-05T17:58:02.593Z,41.58
2019-05-05T18:00:35.308Z,42.20
2019-05-05T18:03:08.501Z,42.21
2019-05-05T18:05:57.771Z,43.18
2019-05-05T18:08:59.867Z,43.39
2019-05-05T18:11:44.065Z,43.48
2019-05-05T18:14:20.098Z,43.79
2019-05-05T18:16:51.280Z,44.38
2019-05-05T18:19:22.357Z,44.70
2019-05-05T18:21:54.739Z,44.81
2019-05-05T18:24:25.959Z,44.65
2019-05-05T18:26:57.210Z,44.43
2019-05-05T18:29:28.287Z,44.72
2019-05-05T18:31:59.730Z,45.25
2019-05-05T18:34:31.050Z,45.23
2019-05-05T18:37:03.739Z,45.50
2019-05-05T18:39:34.965Z,45.94
2019-05-05T18:42:34.165Z,45.73
2019-05-05T18:45:09.467Z,45.73
2019-05-05T18:47:40.453Z,45.85
2019-05-05T18:50:13.629Z,45.99
2019-05-05T18:52:47.142Z,45.81
2019-05-05T18:55:17.608Z,46.09
2019-05-05T18:57:48.775Z,46.17
2019-05-05T19:00:30.097Z,46.21
2019-05-05T19:03:17.476Z,46.19
2019-05-05T19:05:49.253Z,46.45
2019-05-05T19:08:29.452Z,46.46
2019-05-05T19:11:00.607Z,46.93
2019-05-05T19:13:33.892Z,47.35
2019-05-05T19:16:04.513Z,47.06
2019-05-05T19:18:36.630Z,47.25
2019-05-05T19:21:29.357Z,47.18
2019-05-05T19:24:00.515Z,47.32
2019-05-05T19:26:33.646Z,47.46
2019-05-05T19:29:05.158Z,47.40
2019-05-05T19:31:36.686Z,47.35
2019-05-05T19:34:09.101Z,47.37
2019-05-05T19:36:40.168Z,47.26
2019-05-05T19:39:13.552Z,47.82
2019-05-05T19:41:46.918Z,47.98
2019-05-05T19:44:17.009Z,48.10
2019-05-05T19:46:56.668Z,47.86
2019-05-05T19:49:28.748Z,47.52
2019-05-05T19:51:59.834Z,47.49
2019-05-05T19:54:30.918Z,47.46
2019-05-05T19:57:03.815Z,47.50
2019-05-05T19:59:35.855Z,47.73
2019-05-05T20:02:08.095Z,48.06
2019-05-05T20:04:39.588Z,48.12
2019-05-05T20:07:10.764Z,48.44
2019-05-05T20:09:43.565Z,48.47
2019-05-05T20:12:14.846Z,48.08
2019-05-05T20:14:45.982Z,47.76
2019-05-05T20:17:23.350Z,47.52
2019-05-05T20:19:54.731Z,47.20
2019-05-05T20:22:25.847Z,47.20
2019-05-05T20:24:56.962Z,47.43
2019-05-05T20:27:28.086Z,47.76
2019-05-05T20:30:00.347Z,48.39
2019-05-05T20:32:40.760Z,48.98
2019-05-05T20:35:35.272Z,49.40
2019-05-05T20:38:26.759Z,49.46
2019-05-05T20:41:14.542Z,49.89
2019-05-05T20:43:45.839Z,50.75
2019-05-05T20:46:17.670Z,51.13
2019-05-05T20:48:48.810Z,50.80
2019-05-05T20:51:19.931Z,50.83
2019-05-05T20:53:50.951Z,51.04
2019-05-05T20:56:22.453Z,51.94
2019-05-05T20:58:54.930Z,51.87
2019-05-05T21:01:27.234Z,51.68
2019-05-05T21:03:58.246Z,52.16
2019-05-05T21:06:29.279Z,52.55
2019-05-05T21:09:00.285Z,52.86
2019-05-05T21:11:31.951Z,53.55
2019-05-05T21:14:04.030Z,53.41
2019-05-05T21:16:35.097Z,53.35
2019-05-05T21:19:06.233Z,53.64
2019-05-05T21:21:39.342Z,53.28
2019-05-05T21:24:10.480Z,53.25
2019-05-05T21:27:04.077Z,53.43
2019-05-05T21:29:41.422Z,53.21
2019-05-05T21:32:07.605Z,53.22
2019-05-05T21:34:39.355Z,54.10
2019-05-05T21:37:10.430Z,54.54
2019-05-05T21:39:41.496Z,54.41
2019-05-05T21:42:14.112Z,54.52
2019-05-05T21:44:45.214Z,54.35
2019-05-05T21:47:16.211Z,53.80
2019-05-05T21:49:47.276Z,53.27
2019-05-05T21:52:34.766Z,53.53
2019-05-05T21:55:18.580Z,53.40
2019-05-05T21:58:05.069Z,54.03
2019-05-05T22:00:54.768Z,54.63
2019-05-05T22:03:34.563Z,54.50
2019-05-05T22:06:06.977Z,54.69
2019-05-05T22:08:38.038Z,54.57
2019-05-05T22:11:09.555Z,56.00
2019-05-05T22:13:40.561Z,55.52
2019-05-05T22:16:13.504Z,54.71
2019-05-05T22:18:46.697Z,54.69
2019-05-05T22:21:26.532Z,56.24
2019-05-05T22:24:16.089Z,55.58
2019-05-05T22:26:47.326Z,55.73
2019-05-05T22:29:18.605Z,55.05
2019-05-05T22:31:49.712Z,55.47
2019-05-05T22:34:20.811Z,55.27
2019-05-05T22:36:51.801Z,55.17
2019-05-05T22:39:24.356Z,56.08
2019-05-05T22:41:55.648Z,55.44
2019-05-05T22:44:26.703Z,54.88
2019-05-05T22:46:57.744Z,55.05
2019-05-05T22:49:28.893Z,54.85
2019-05-05T22:52:00.573Z,55.59
2019-05-05T22:54:33.674Z,55.72
2019-05-05T22:57:04.742Z,55.57
2019-05-05T22:59:35.803Z,56.08
2019-05-05T23:02:06.953Z,56.12
2019-05-05T23:04:47.936Z,56.38
2019-05-05T23:07:24.339Z,56.18
2019-05-05T23:09:55.348Z,56.48
2019-05-05T23:12:26.350Z,57.19
2019-05-05T23:14:57.641Z,57.51
2019-05-05T23:17:43.913Z,56.71
2019-05-05T23:21:10.041Z,57.09
2019-05-05T23:23:56.325Z,56.68
2019-05-05T23:26:28.792Z,57.29
2019-05-05T23:29:00.611Z,57.81
2019-05-05T23:31:33.447Z,57.92
2019-05-05T23:34:04.586Z,57.80
2019-05-05T23:36:35.657Z,57.57
2019-05-05T23:39:08.022Z,57.32
2019-05-05T23:41:39.791Z,56.93
2019-05-05T23:44:10.904Z,57.34
2019-05-05T23:46:41.980Z,57.31
2019-05-05T23:49:13.756Z,58.13
2019-05-05T23:51:44.938Z,57.33
2019-05-05T23:54:15.939Z,57.44
2019-05-05T23:56:48.175Z,57.10
2019-05-05T23:59:19.206Z,57.94
